createdAt,value
2017-07-18T08:32:36.579Z,1046.0
2017-07-18T08:33:37.992Z,1046.2
2017-07-18T08:36:18.626Z,1047.0
2017-07-18T08:37:20.048Z,1047.2
2017-07-18T08:38:41.703Z,1047.7
2017-07-18T08:39:43.116Z,1048.0
2017-07-18T08:40:44.529Z,1048.1
2017-07-18T08:41:45.979Z,1048.2
2017-07-18T08:42:47.390Z,1048.7
2017-07-18T08:43:48.804Z,1049.3
2017-07-18T08:44:50.298Z,1049.6
2017-07-18T08:45:51.713Z,1050.0
2017-07-18T08:46:53.135Z,1050.2
2017-07-18T08:47:54.619Z,1050.7
2017-07-18T08:48:56.030Z,1051.3
2017-07-18T08:49:57.439Z,1051.8
2017-07-18T08:50:59.966Z,1052.5
2017-07-18T08:52:01.379Z,1053.4
2017-07-18T08:53:02.844Z,1053.8
2017-07-18T08:54:04.256Z,1053.6
2017-07-18T08:55:05.673Z,1053.6
2017-07-18T08:56:07.167Z,1053.9
2017-07-18T08:57:08.575Z,1054.2
2017-07-18T08:58:10.010Z,1054.5
2017-07-18T08:59:11.494Z,1054.7
2017-07-18T09:00:12.899Z,1055.8
2017-07-18T09:01:14.311Z,1056.8
2017-07-18T09:02:15.809Z,1056.2
2017-07-18T09:03:17.231Z,1056.9
2017-07-18T09:04:18.645Z,1057.7
2017-07-18T09:05:20.129Z,1058.1
2017-07-18T09:06:21.548Z,1058.7
2017-07-18T09:07:23.036Z,1059.6
2017-07-18T09:08:24.427Z,1059.9
2017-07-18T09:09:25.891Z,1061.1
2017-07-18T09:10:27.319Z,1061.9
2017-07-18T09:11:28.774Z,1063.1
2017-07-18T09:12:30.188Z,1064.6
2017-07-18T09:13:31.650Z,1066.1
2017-07-18T09:14:33.065Z,1067.3
2017-07-18T09:15:34.540Z,1068.4
2017-07-18T09:16:35.956Z,1069.8
2017-07-18T09:17:37.362Z,1071.5
2017-07-18T09:18:38.853Z,1073.0
2017-07-18T09:19:40.266Z,1074.5
2017-07-18T09:20:41.718Z,1076.0
2017-07-18T09:21:43.171Z,1077.0
2017-07-18T09:22:44.586Z,1078.3
2017-07-18T09:23:46.001Z,1078.8
2017-07-18T09:24:47.494Z,1078.8
2017-07-18T09:25:48.911Z,1080.2
2017-07-18T09:26:50.386Z,1081.2
2017-07-18T09:27:51.814Z,1082.8
2017-07-18T09:28:53.234Z,1084.5
2017-07-18T09:29:54.694Z,1086.4
2017-07-18T09:30:56.636Z,1088.2
2017-07-18T09:31:58.647Z,1088.7
2017-07-18T09:33:00.065Z,1090.2
2017-07-18T09:34:01.502Z,1092.0
2017-07-18T09:35:02.912Z,1093.4
2017-07-18T09:36:04.339Z,1095.5
2017-07-18T09:37:05.756Z,1111.9
2017-07-18T09:38:07.567Z,1123.6
2017-07-18T09:39:08.987Z,1125.1
2017-07-18T09:40:10.414Z,1126.2
2017-07-18T09:41:11.834Z,1130.0
2017-07-18T09:42:13.638Z,1125.2
2017-07-18T09:43:15.075Z,1120.3
2017-07-18T09:44:16.483Z,1114.2
2017-07-18T09:45:17.905Z,1132.2
2017-07-18T09:46:19.333Z,1131.9
2017-07-18T09:47:20.755Z,1128.7
2017-07-18T09:48:22.183Z,1133.8
2017-07-18T09:49:23.604Z,1132.9
2017-07-18T09:50:25.034Z,1122.7
2017-07-18T09:51:26.455Z,1118.9
2017-07-18T09:52:27.878Z,1136.2
2017-07-18T09:53:29.297Z,1141.3
2017-07-18T09:54:30.772Z,1143.2
2017-07-18T09:55:32.161Z,1142.6
2017-07-18T09:56:33.592Z,1131.7
2017-07-18T09:57:35.011Z,1122.0
2017-07-18T09:58:36.436Z,1116.7
2017-07-18T09:59:37.858Z,1115.3
2017-07-18T10:00:39.309Z,1109.8
2017-07-18T10:01:40.732Z,1110.1
2017-07-18T10:02:42.154Z,1110.1
2017-07-18T10:03:43.581Z,1114.4
2017-07-18T10:04:45.011Z,1126.0
2017-07-18T10:05:46.425Z,1141.8
2017-07-18T10:06:47.849Z,1142.3
2017-07-18T10:07:49.268Z,1144.7
2017-07-18T10:08:50.885Z,1144.1
2017-07-18T10:09:52.296Z,1143.6
2017-07-18T10:10:54.100Z,1142.8
2017-07-18T10:11:55.525Z,1138.1
2017-07-18T10:12:57.030Z,1133.8
2017-07-18T10:13:58.447Z,1138.8
2017-07-18T10:15:00.252Z,1138.2
2017-07-18T10:16:01.679Z,1131.1
2017-07-18T10:17:03.092Z,1129.0
2017-07-18T10:18:04.510Z,1130.7
2017-07-18T10:19:05.922Z,1119.0
2017-07-18T10:20:07.440Z,1099.1
2017-07-18T10:21:08.861Z,1117.1
2017-07-18T10:22:10.278Z,1116.2
2017-07-18T10:23:11.743Z,1117.3
2017-07-18T10:24:13.162Z,1104.6
2017-07-18T10:25:14.584Z,1095.8
2017-07-18T10:26:16.069Z,1091.8
2017-07-18T10:27:17.490Z,1089.8
2017-07-18T10:28:18.901Z,1108.4
2017-07-18T10:29:20.385Z,1085.1
2017-07-18T10:30:21.800Z,1083.6
2017-07-18T10:31:23.219Z,1082.2
2017-07-18T10:32:24.711Z,1080.3
2017-07-18T10:33:26.123Z,1078.3
2017-07-18T10:34:27.586Z,1076.9
2017-07-18T10:35:29.011Z,1075.6
2017-07-18T10:36:30.462Z,1074.3
2017-07-18T10:37:31.884Z,1073.5
2017-07-18T10:38:33.342Z,1072.7
2017-07-18T10:39:34.759Z,1073.2
2017-07-18T10:40:36.224Z,1070.9
2017-07-18T10:41:37.644Z,1070.9
2017-07-18T10:42:39.053Z,1071.4
2017-07-18T10:43:40.542Z,1071.8
2017-07-18T10:44:41.960Z,1075.8
2017-07-18T10:45:43.376Z,1075.2
2017-07-18T10:46:44.869Z,1081.6
2017-07-18T10:47:46.299Z,1088.0
2017-07-18T10:48:47.746Z,1090.3
2017-07-18T10:49:49.171Z,1092.7
2017-07-18T10:50:50.627Z,1093.4
2017-07-18T10:51:52.052Z,1093.8
2017-07-18T10:52:53.474Z,1094.0
2017-07-18T10:53:54.954Z,1095.0
2017-07-18T10:54:56.376Z,1095.5
2017-07-18T10:55:57.794Z,1097.1
2017-07-18T10:56:59.271Z,1098.2
2017-07-18T10:58:00.692Z,1098.8
2017-07-18T10:59:02.155Z,1100.8
2017-07-18T11:00:03.572Z,1101.2
2017-07-18T11:01:05.036Z,1103.8
2017-07-18T11:02:06.462Z,1105.6
2017-07-18T11:03:07.876Z,1102.8
2017-07-18T11:04:09.355Z,1099.7
2017-07-18T11:05:10.770Z,1099.9
2017-07-18T11:06:12.192Z,1100.8
2017-07-18T11:07:13.672Z,1106.5
2017-07-18T11:08:15.098Z,1102.9
2017-07-18T11:09:16.562Z,1105.5
2017-07-18T11:10:17.981Z,1108.1
2017-07-18T11:11:19.436Z,1112.2
2017-07-18T11:12:20.856Z,1114.4
2017-07-18T11:13:22.279Z,1114.2
2017-07-18T11:14:23.754Z,1116.4
2017-07-18T11:15:25.178Z,1118.4
2017-07-18T11:16:26.603Z,1119.8
2017-07-18T11:17:28.075Z,1121.8
2017-07-18T11:18:29.494Z,1122.5
2017-07-18T11:19:30.920Z,1124.1
2017-07-18T11:20:32.396Z,1125.2
2017-07-18T11:21:33.820Z,1127.3
2017-07-18T11:22:35.244Z,1129.5
2017-07-18T11:23:36.717Z,1130.3
2017-07-18T11:24:38.140Z,1131.4
2017-07-18T11:25:39.562Z,1131.3
2017-07-18T11:26:41.036Z,1130.5
2017-07-18T11:27:42.461Z,1131.0
2017-07-18T11:28:43.881Z,1130.4
2017-07-18T11:29:45.358Z,1129.6
2017-07-18T11:30:46.787Z,1128.9
2017-07-18T11:31:48.204Z,1128.5
2017-07-18T11:32:49.682Z,1127.9
2017-07-18T11:33:51.102Z,1126.8
2017-07-18T11:34:52.802Z,1126.5
2017-07-18T11:35:54.226Z,1126.7
2017-07-18T11:36:55.653Z,1127.2
2017-07-18T11:37:57.083Z,1127.6
2017-07-18T11:38:58.505Z,1127.8
2017-07-18T11:40:00.019Z,1126.8
2017-07-18T11:41:01.442Z,1127.1
2017-07-18T11:42:02.863Z,1127.7
2017-07-18T11:43:04.342Z,1127.2
2017-07-18T11:44:05.774Z,1126.8
2017-07-18T11:45:07.196Z,1126.9
2017-07-18T11:46:08.668Z,1126.1
2017-07-18T11:47:10.090Z,1127.1
2017-07-18T11:48:11.519Z,1128.1
2017-07-18T11:49:12.986Z,1127.7
2017-07-18T11:50:14.411Z,1126.3
2017-07-18T11:51:15.837Z,1123.1
2017-07-18T11:52:17.310Z,1122.9
2017-07-18T11:53:18.732Z,1121.8
2017-07-18T11:54:20.187Z,1119.8
2017-07-18T11:55:21.612Z,1118.9
2017-07-18T11:56:23.070Z,1119.4
2017-07-18T11:57:24.494Z,1119.7
2017-07-18T11:58:25.915Z,1119.6
2017-07-18T11:59:27.390Z,1119.2
2017-07-18T12:00:28.809Z,1117.4
2017-07-18T12:01:30.227Z,1107.3
2017-07-18T12:02:31.712Z,1112.9
2017-07-18T12:03:33.131Z,1110.8
2017-07-18T12:04:34.613Z,1108.9
2017-07-18T12:05:36.037Z,1106.4
2017-07-18T12:06:37.476Z,1104.3
2017-07-18T12:07:38.908Z,1102.6
2017-07-18T12:08:40.323Z,1101.5
2017-07-18T12:09:41.800Z,1099.4
2017-07-18T12:10:43.236Z,1097.9
2017-07-18T12:11:44.665Z,1096.5
2017-07-18T12:12:46.119Z,1095.2
2017-07-18T12:13:47.545Z,1094.3
2017-07-18T12:14:48.963Z,1094.2
2017-07-18T12:15:50.442Z,1094.2
2017-07-18T12:16:51.868Z,1094.8
2017-07-18T12:17:53.279Z,1095.3
2017-07-18T12:18:54.760Z,1095.4
2017-07-18T12:19:56.188Z,1095.4
2017-07-18T12:20:57.610Z,1094.7
2017-07-18T12:21:59.087Z,1094.8
2017-07-18T12:23:00.503Z,1094.9
2017-07-18T12:24:01.921Z,1094.5
2017-07-18T12:25:03.408Z,1094.0
2017-07-18T12:26:04.830Z,1092.3
2017-07-18T12:27:06.250Z,1089.2
2017-07-18T12:28:07.726Z,1085.1
2017-07-18T12:29:09.143Z,1080.6
2017-07-18T12:30:10.633Z,1074.8
2017-07-18T12:31:12.039Z,1070.9
2017-07-18T12:32:13.484Z,1067.1
2017-07-18T12:33:14.911Z,1063.5
2017-07-18T12:34:16.329Z,1061.0
2017-07-18T12:35:17.804Z,1058.3
2017-07-18T12:36:19.227Z,1055.8
2017-07-18T12:37:20.640Z,1051.5
2017-07-18T12:38:22.140Z,1047.3
2017-07-18T12:39:23.548Z,1043.3
2017-07-18T12:40:24.963Z,1040.7
2017-07-18T12:41:26.449Z,1038.8
2017-07-18T12:42:27.865Z,1037.3
2017-07-18T12:43:29.284Z,1036.4
2017-07-18T12:44:30.781Z,1034.7
2017-07-18T12:45:32.199Z,1032.8
2017-07-18T12:46:33.615Z,1030.7
2017-07-18T12:47:35.091Z,1027.8
2017-07-18T12:48:36.512Z,1025.0
2017-07-18T12:49:37.928Z,1022.8
2017-07-18T12:50:39.414Z,1020.9
2017-07-18T12:51:40.833Z,1020.0
2017-07-18T12:52:42.246Z,1019.9
2017-07-18T12:53:43.744Z,1020.6
2017-07-18T12:54:45.151Z,1021.2
2017-07-18T12:55:46.620Z,1022.0
2017-07-18T12:56:48.035Z,1022.9
2017-07-18T12:57:49.501Z,1023.1
2017-07-18T12:58:50.928Z,1023.9
2017-07-18T12:59:52.380Z,1023.4
2017-07-18T13:00:53.796Z,1023.5
2017-07-18T13:01:55.280Z,1023.1
2017-07-18T13:02:56.700Z,1022.8
2017-07-18T13:03:58.118Z,1022.4
2017-07-18T13:04:59.581Z,1021.3
2017-07-18T13:06:01.001Z,1019.3
2017-07-18T13:07:02.420Z,1016.8
2017-07-18T13:08:03.906Z,1015.4
2017-07-18T13:09:05.331Z,1014.6
2017-07-18T13:10:06.746Z,1013.3
2017-07-18T13:11:08.225Z,1011.6
2017-07-18T13:12:09.645Z,1009.8
2017-07-18T13:13:11.056Z,1007.4
2017-07-18T13:14:12.550Z,1004.6
2017-07-18T13:15:13.965Z,1002.4
2017-07-18T13:16:15.429Z,1000.7
2017-07-18T13:17:16.845Z,998.8
2017-07-18T13:18:18.269Z,997.3
2017-07-18T13:19:19.684Z,995.6
2017-07-18T13:20:21.191Z,994.0
2017-07-18T13:21:22.604Z,992.5
2017-07-18T13:22:24.071Z,991.2
2017-07-18T13:23:25.486Z,989.9
2017-07-18T13:24:26.897Z,988.5
2017-07-18T13:25:28.392Z,987.3
2017-07-18T13:26:29.806Z,986.4
2017-07-18T13:27:31.215Z,985.6
2017-07-18T13:28:32.716Z,984.4
2017-07-18T13:29:34.127Z,983.4
2017-07-18T13:30:35.597Z,982.1
2017-07-18T13:31:37.008Z,981.5
2017-07-18T13:32:38.426Z,981.0
2017-07-18T13:33:39.835Z,980.1
2017-07-18T13:34:41.248Z,979.3
2017-07-18T13:35:42.808Z,978.3
2017-07-18T13:36:44.230Z,977.7
2017-07-18T13:37:46.051Z,977.2
2017-07-18T13:38:47.539Z,976.9
2017-07-18T13:39:48.951Z,976.4
2017-07-18T13:40:50.360Z,975.9
2017-07-18T13:41:51.849Z,975.4
2017-07-18T13:42:53.259Z,974.8
2017-07-18T13:43:54.674Z,974.2
2017-07-18T13:44:56.168Z,974.0
2017-07-18T13:45:57.584Z,973.8
2017-07-18T13:46:59.052Z,973.6
2017-07-18T13:48:00.459Z,973.5
2017-07-18T13:49:01.942Z,973.0
2017-07-18T13:50:03.350Z,972.6
2017-07-18T13:51:04.789Z,972.2
2017-07-18T13:52:06.198Z,972.1
2017-07-18T13:53:07.694Z,972.0
2017-07-18T13:54:09.109Z,971.9
2017-07-18T13:55:10.595Z,971.8
2017-07-18T13:56:12.006Z,971.8
2017-07-18T13:57:13.472Z,971.6
2017-07-18T13:58:15.028Z,971.5
2017-07-18T13:59:16.559Z,971.4
2017-07-18T14:00:17.972Z,971.3
2017-07-18T14:01:19.383Z,971.4
2017-07-18T14:02:20.887Z,971.1
2017-07-18T14:03:22.299Z,970.9
2017-07-18T14:04:23.709Z,970.9
2017-07-18T14:05:25.201Z,970.9
2017-07-18T14:06:26.612Z,971.0
2017-07-18T14:07:28.023Z,970.9
2017-07-18T14:08:29.522Z,971.0
2017-07-18T14:09:30.929Z,971.1
2017-07-18T14:10:32.339Z,971.2
2017-07-18T14:11:33.845Z,971.3
2017-07-18T14:12:35.248Z,971.4
2017-07-18T14:13:36.660Z,971.4
2017-07-18T14:14:38.160Z,971.5
2017-07-18T14:15:39.578Z,971.5
2017-07-18T14:16:41.040Z,971.4
2017-07-18T14:17:42.450Z,971.5
2017-07-18T14:18:43.925Z,971.6
2017-07-18T14:19:45.336Z,971.6
2017-07-18T14:20:46.817Z,971.5
2017-07-18T14:21:48.240Z,971.6
2017-07-18T14:22:49.684Z,971.7
2017-07-18T14:23:51.090Z,971.9
2017-07-18T14:24:52.566Z,972.0
2017-07-18T14:25:53.975Z,972.0
2017-07-18T14:26:55.444Z,972.1
2017-07-18T14:27:56.859Z,972.2
2017-07-18T14:28:58.326Z,972.2
2017-07-18T14:29:59.757Z,972.3
2017-07-18T14:31:01.164Z,972.2
2017-07-18T14:32:02.655Z,972.2
2017-07-18T14:33:04.064Z,972.4
2017-07-18T14:34:05.474Z,972.3
2017-07-18T14:35:06.972Z,972.1
2017-07-18T14:36:08.801Z,972.0
2017-07-18T14:37:10.259Z,972.0
2017-07-18T14:38:11.670Z,972.0
2017-07-18T14:39:13.138Z,972.1
2017-07-18T14:40:14.548Z,972.2
2017-07-18T14:41:15.958Z,972.4
2017-07-18T14:42:17.458Z,972.6
2017-07-18T14:43:18.870Z,972.8
2017-07-18T14:44:20.283Z,972.9
2017-07-18T14:45:21.798Z,973.0
2017-07-18T14:46:23.205Z,973.1
2017-07-18T14:47:24.690Z,973.2
2017-07-18T14:48:26.097Z,973.3
2017-07-18T14:49:27.550Z,973.5
2017-07-18T14:50:28.953Z,973.5
2017-07-18T14:51:30.419Z,973.5
2017-07-18T14:52:31.828Z,973.7
2017-07-18T14:53:33.302Z,973.9
2017-07-18T14:54:34.712Z,974.1
2017-07-18T14:55:36.132Z,974.2
2017-07-18T14:56:37.666Z,974.3
2017-07-18T14:57:39.078Z,974.5
2017-07-18T14:58:40.503Z,974.7
2017-07-18T14:59:41.959Z,974.8
2017-07-18T15:00:43.377Z,974.7
2017-07-18T15:01:44.821Z,974.9
2017-07-18T15:02:46.232Z,975.1
2017-07-18T15:03:47.704Z,975.2
2017-07-18T15:04:49.118Z,975.3
2017-07-18T15:05:50.585Z,975.5
2017-07-18T15:06:51.995Z,975.7
2017-07-18T15:07:53.482Z,975.9
2017-07-18T15:08:54.902Z,976.0
2017-07-18T15:09:56.346Z,976.2
2017-07-18T15:10:57.769Z,976.2
2017-07-18T15:11:59.226Z,976.3
2017-07-18T15:13:00.637Z,976.5
2017-07-18T15:14:02.110Z,976.6
2017-07-18T15:15:03.517Z,976.7
2017-07-18T15:16:04.930Z,976.9
2017-07-18T15:17:06.429Z,977.1
2017-07-18T15:18:07.844Z,977.2
2017-07-18T15:19:09.298Z,977.4
2017-07-18T15:20:10.752Z,977.6
2017-07-18T15:21:12.190Z,977.8
2017-07-18T15:22:13.597Z,978.0
2017-07-18T15:23:15.072Z,978.2
2017-07-18T15:24:16.521Z,978.3
2017-07-18T15:25:17.934Z,978.4
2017-07-18T15:26:19.392Z,978.4
2017-07-18T15:27:20.807Z,978.4
2017-07-18T15:28:22.213Z,978.4
2017-07-18T15:29:23.724Z,978.6
2017-07-18T15:30:25.130Z,978.8
2017-07-18T15:31:26.541Z,978.9
2017-07-18T15:32:28.040Z,979.1
2017-07-18T15:33:29.449Z,979.1
2017-07-18T15:34:30.917Z,979.2
2017-07-18T15:35:32.325Z,979.3
2017-07-18T15:36:33.734Z,979.5
2017-07-18T15:37:35.139Z,979.6
2017-07-18T15:38:36.550Z,979.8
2017-07-18T15:39:38.020Z,979.9
2017-07-18T15:40:39.430Z,980.1
2017-07-18T15:41:40.843Z,980.4
2017-07-18T15:42:42.338Z,980.6
2017-07-18T15:43:43.742Z,980.7
2017-07-18T15:44:45.189Z,980.8
2017-07-18T15:45:46.661Z,981.0
2017-07-18T15:46:48.071Z,981.1
2017-07-18T15:47:49.537Z,981.3
2017-07-18T15:48:50.951Z,981.5
2017-07-18T15:49:52.417Z,981.6
2017-07-18T15:50:53.826Z,981.7
2017-07-18T15:51:55.232Z,981.9
2017-07-18T15:52:56.741Z,982.2
2017-07-18T15:53:58.146Z,982.3
2017-07-18T15:54:59.576Z,982.5
2017-07-18T15:56:01.059Z,982.6
2017-07-18T15:57:02.469Z,982.6
2017-07-18T15:58:03.959Z,982.8
2017-07-18T15:59:05.348Z,982.9
2017-07-18T16:00:06.824Z,983.0
2017-07-18T16:01:08.232Z,983.1
2017-07-18T16:02:09.654Z,983.2
2017-07-18T16:03:11.146Z,983.4
2017-07-18T16:04:12.550Z,983.5
2017-07-18T16:05:13.962Z,983.5
2017-07-18T16:06:15.471Z,983.6
2017-07-18T16:07:16.884Z,983.7
2017-07-18T16:08:18.280Z,983.9
2017-07-18T16:09:19.782Z,984.1
2017-07-18T16:10:21.195Z,984.2
2017-07-18T16:11:22.601Z,984.3
2017-07-18T16:12:24.146Z,984.4
2017-07-18T16:13:25.563Z,984.5
2017-07-18T16:14:26.964Z,984.5
2017-07-18T16:15:28.423Z,984.6
2017-07-18T16:16:29.825Z,984.6
2017-07-18T16:17:31.242Z,984.7
2017-07-18T16:18:32.746Z,984.7
2017-07-18T16:19:34.157Z,984.8
2017-07-18T16:20:35.572Z,984.9
2017-07-18T16:21:37.064Z,985.1
2017-07-18T16:22:38.541Z,985.2
2017-07-18T16:23:39.966Z,985.2
2017-07-18T16:24:41.375Z,985.3
2017-07-18T16:25:42.778Z,985.5
2017-07-18T16:26:44.182Z,985.6
2017-07-18T16:27:45.622Z,985.8
2017-07-18T16:28:47.024Z,986.0
2017-07-18T16:29:48.431Z,986.0
2017-07-18T16:30:49.935Z,986.2
2017-07-18T16:31:51.656Z,986.3
2017-07-18T16:32:53.064Z,986.4
2017-07-18T16:33:54.554Z,986.6
2017-07-18T16:34:55.962Z,986.7
2017-07-18T16:35:57.369Z,986.8
2017-07-18T16:36:58.874Z,986.9
2017-07-18T16:38:00.286Z,987.0
2017-07-18T16:39:01.696Z,987.1
2017-07-18T16:40:03.203Z,987.3
2017-07-18T16:41:04.604Z,987.4
2017-07-18T16:42:06.011Z,987.6
2017-07-18T16:43:07.522Z,987.7
2017-07-18T16:44:08.979Z,987.8
2017-07-18T16:45:10.500Z,987.7
2017-07-18T16:46:11.910Z,987.9
2017-07-18T16:47:13.315Z,988.0
2017-07-18T16:48:14.821Z,988.2
2017-07-18T16:49:16.231Z,988.2
2017-07-18T16:50:17.642Z,988.4
2017-07-18T16:51:19.142Z,988.6
2017-07-18T16:52:20.551Z,988.7
2017-07-18T16:53:21.965Z,988.8
2017-07-18T16:54:23.461Z,988.8
2017-07-18T16:55:24.868Z,988.9
2017-07-18T16:56:26.276Z,989.1
2017-07-18T16:57:27.854Z,989.2
2017-07-18T16:58:29.750Z,989.3
2017-07-18T16:59:31.173Z,989.3
2017-07-18T17:00:32.616Z,989.5
2017-07-18T17:01:34.021Z,989.6
2017-07-18T17:02:35.432Z,989.7
2017-07-18T17:03:36.938Z,989.8
2017-07-18T17:04:38.355Z,989.9
2017-07-18T17:05:39.765Z,990.0
2017-07-18T17:06:41.262Z,990.1
2017-07-18T17:07:42.671Z,990.3
2017-07-18T17:08:44.144Z,990.3
2017-07-18T17:09:45.561Z,990.5
2017-07-18T17:10:47.019Z,990.6
2017-07-18T17:11:48.428Z,990.7
2017-07-18T17:12:49.838Z,990.7
2017-07-18T17:13:51.347Z,990.8
2017-07-18T17:14:52.755Z,990.8
2017-07-18T17:15:54.482Z,991.0
2017-07-18T17:16:55.990Z,991.0
2017-07-18T17:17:57.395Z,991.1
2017-07-18T17:18:58.805Z,991.2
2017-07-18T17:20:00.285Z,991.3
2017-07-18T17:21:01.700Z,991.3
2017-07-18T17:22:03.107Z,991.4
2017-07-18T17:23:04.609Z,991.4
2017-07-18T17:24:06.014Z,991.5
2017-07-18T17:25:07.491Z,991.5
2017-07-18T17:26:08.905Z,991.5
2017-07-18T17:27:10.370Z,991.5
2017-07-18T17:28:11.777Z,991.7
2017-07-18T17:29:13.250Z,991.6
2017-07-18T17:30:14.656Z,991.7
2017-07-18T17:31:16.134Z,991.7
2017-07-18T17:32:17.548Z,991.8
2017-07-18T17:33:18.952Z,991.8
2017-07-18T17:34:20.454Z,991.8
2017-07-18T17:35:21.867Z,991.9
2017-07-18T17:36:23.280Z,991.9
2017-07-18T17:37:24.880Z,991.9
2017-07-18T17:38:26.289Z,992.1
2017-07-18T17:39:27.859Z,992.1
2017-07-18T17:40:29.303Z,992.2
2017-07-18T17:41:30.713Z,992.3
2017-07-18T17:42:32.120Z,992.4
2017-07-18T17:43:33.723Z,992.5
2017-07-18T17:44:35.131Z,992.5
2017-07-18T17:45:36.805Z,992.6
2017-07-18T17:46:38.213Z,992.7
2017-07-18T17:47:39.895Z,992.8
2017-07-18T17:48:41.304Z,992.8
2017-07-18T17:49:42.985Z,992.9
2017-07-18T17:50:44.391Z,993.0
2017-07-18T17:51:46.065Z,993.0
2017-07-18T17:52:47.471Z,993.0
2017-07-18T17:53:48.873Z,993.1
2017-07-18T17:54:50.410Z,993.2
2017-07-18T17:55:51.818Z,993.3
2017-07-18T17:56:53.229Z,993.4
2017-07-18T17:57:54.932Z,993.5
2017-07-18T17:58:56.325Z,993.5
2017-07-18T17:59:57.734Z,993.6
2017-07-18T18:00:59.231Z,993.6
2017-07-18T18:02:00.650Z,993.6
2017-07-18T18:03:02.069Z,993.8
2017-07-18T18:04:03.777Z,993.7
2017-07-18T18:05:05.170Z,993.8
2017-07-18T18:06:06.845Z,993.8
2017-07-18T18:07:08.252Z,994.0
2017-07-18T18:08:09.928Z,994.1
2017-07-18T18:09:11.334Z,994.1
2017-07-18T18:10:12.809Z,994.1
2017-07-18T18:11:14.216Z,994.1
2017-07-18T18:12:16.909Z,994.1
2017-07-18T18:13:18.824Z,994.1
2017-07-18T18:14:20.228Z,994.1
2017-07-18T18:15:21.853Z,994.2
2017-07-18T18:16:23.340Z,994.2
2017-07-18T18:17:24.822Z,994.2
2017-07-18T18:18:26.286Z,994.3
2017-07-18T18:19:27.700Z,994.3
2017-07-18T18:20:29.172Z,994.4
2017-07-18T18:21:30.567Z,994.5
2017-07-18T18:22:31.973Z,994.6
2017-07-18T18:23:33.476Z,994.7
2017-07-18T18:24:34.909Z,994.8
2017-07-18T18:25:36.325Z,994.9
2017-07-18T18:26:37.801Z,994.9
2017-07-18T18:27:39.225Z,994.9
2017-07-18T18:28:40.618Z,994.9
2017-07-18T18:29:42.145Z,995.0
2017-07-18T18:30:43.554Z,995.0
2017-07-18T18:31:44.995Z,995.0
2017-07-18T18:32:46.445Z,995.1
2017-07-18T18:33:47.849Z,995.1
2017-07-18T18:34:49.257Z,995.1
2017-07-18T18:35:50.764Z,995.1
2017-07-18T18:36:52.174Z,995.2
2017-07-18T18:37:53.581Z,995.2
2017-07-18T18:38:55.085Z,995.3
2017-07-18T18:39:56.495Z,995.3
2017-07-18T18:40:57.967Z,995.3
2017-07-18T18:41:59.374Z,995.4
2017-07-18T18:43:00.849Z,995.3
2017-07-18T18:44:02.256Z,995.4
2017-07-18T18:45:03.808Z,995.3
2017-07-18T18:46:05.225Z,995.4
2017-07-18T18:47:06.714Z,995.4
2017-07-18T18:48:08.125Z,995.4
2017-07-18T18:49:09.593Z,995.3
2017-07-18T18:50:11.011Z,995.3
2017-07-18T18:51:12.475Z,995.3
2017-07-18T18:52:13.885Z,995.3
2017-07-18T18:53:15.358Z,995.3
2017-07-18T18:54:16.763Z,995.3
2017-07-18T18:55:18.233Z,995.4
2017-07-18T18:56:19.639Z,995.5
2017-07-18T18:57:21.119Z,995.6
2017-07-18T18:58:23.481Z,995.6
2017-07-18T18:59:24.753Z,995.5
2017-07-18T19:00:26.255Z,995.6
2017-07-18T19:01:27.664Z,995.7
2017-07-18T19:02:29.089Z,995.7
2017-07-18T19:03:30.575Z,995.6
2017-07-18T19:04:32.203Z,995.6
2017-07-18T19:05:33.660Z,995.7
2017-07-18T19:06:35.068Z,995.8
2017-07-18T19:07:36.539Z,995.8
2017-07-18T19:08:37.948Z,995.9
2017-07-18T19:09:39.420Z,995.9
2017-07-18T19:10:40.779Z,995.9
2017-07-18T19:11:42.300Z,995.9
2017-07-18T19:12:43.702Z,995.9
2017-07-18T19:13:45.181Z,995.8
2017-07-18T19:14:46.584Z,995.9
2017-07-18T19:15:48.062Z,995.8
2017-07-18T19:16:49.471Z,995.9
2017-07-18T19:17:50.953Z,995.8
2017-07-18T19:18:52.361Z,995.8
2017-07-18T19:19:53.771Z,995.8
2017-07-18T19:20:55.263Z,995.7
2017-07-18T19:21:56.668Z,995.7
2017-07-18T19:22:58.110Z,995.6
2017-07-18T19:23:59.583Z,995.7
2017-07-18T19:25:00.987Z,995.7
2017-07-18T19:26:02.390Z,995.7
2017-07-18T19:27:03.798Z,995.6
2017-07-18T19:28:05.209Z,995.6
2017-07-18T19:29:06.613Z,995.6
2017-07-18T19:30:08.142Z,995.5
2017-07-18T19:31:09.530Z,995.5
2017-07-18T19:32:10.954Z,995.4
2017-07-18T19:33:12.548Z,995.4
2017-07-18T19:34:13.815Z,995.4
2017-07-18T19:35:15.323Z,995.4
2017-07-18T19:36:16.730Z,995.3
2017-07-18T19:37:18.205Z,995.3
2017-07-18T19:38:19.611Z,995.2
2017-07-18T19:39:21.098Z,995.1
2017-07-18T19:40:22.512Z,995.1
2017-07-18T19:41:23.969Z,995.0
2017-07-18T19:42:25.378Z,995.0
2017-07-18T19:43:26.846Z,995.0
2017-07-18T19:44:28.253Z,995.0
2017-07-18T19:45:29.731Z,995.0
2017-07-18T19:46:31.192Z,994.9
2017-07-18T19:47:32.710Z,994.9
2017-07-18T19:48:34.114Z,994.8
2017-07-18T19:49:35.592Z,994.8
2017-07-18T19:50:37.001Z,994.8
2017-07-18T19:51:38.470Z,994.8
2017-07-18T19:52:39.874Z,994.8
2017-07-18T19:53:41.301Z,994.8
2017-07-18T19:54:42.791Z,994.8
2017-07-18T19:55:44.214Z,994.8
2017-07-18T19:56:45.618Z,994.8
2017-07-18T19:57:47.120Z,994.9
2017-07-18T19:58:48.525Z,994.9
2017-07-18T19:59:49.934Z,994.9
2017-07-18T20:00:51.432Z,994.9
2017-07-18T20:01:52.837Z,994.9
2017-07-18T20:02:54.303Z,994.9
2017-07-18T20:03:55.754Z,994.9
2017-07-18T20:04:57.162Z,994.9
2017-07-18T20:05:58.635Z,994.9
2017-07-18T20:07:00.041Z,994.9
2017-07-18T20:08:01.515Z,994.9
2017-07-18T20:09:02.916Z,994.9
2017-07-18T20:10:04.327Z,995.0
2017-07-18T20:11:05.734Z,994.9
2017-07-18T20:12:07.138Z,994.9
2017-07-18T20:13:08.546Z,994.9
2017-07-18T20:14:10.056Z,995.0
2017-07-18T20:15:11.456Z,995.0
2017-07-18T20:16:12.934Z,995.0
2017-07-18T20:17:14.337Z,995.0
2017-07-18T20:18:15.815Z,995.0
2017-07-18T20:19:17.219Z,995.0
2017-07-18T20:20:18.634Z,995.0
2017-07-18T20:21:20.139Z,995.0
2017-07-18T20:22:21.541Z,995.1
2017-07-18T20:23:22.942Z,995.0
2017-07-18T20:24:24.461Z,995.1
2017-07-18T20:25:25.863Z,995.0
2017-07-18T20:26:27.341Z,995.0
2017-07-18T20:27:28.751Z,995.1
2017-07-18T20:28:30.220Z,995.1
2017-07-18T20:29:31.622Z,995.2
2017-07-18T20:30:33.022Z,995.2
2017-07-18T20:31:34.540Z,995.2
2017-07-18T20:32:35.943Z,995.2
2017-07-18T20:33:37.349Z,995.2
2017-07-18T20:34:39.792Z,995.3
2017-07-18T20:35:41.199Z,995.2
2017-07-18T20:36:42.662Z,995.3
2017-07-18T20:37:44.067Z,995.2
2017-07-18T20:38:45.550Z,995.1
2017-07-18T20:39:46.957Z,995.1
2017-07-18T20:40:48.362Z,995.2
2017-07-18T20:41:49.884Z,995.2
2017-07-18T20:42:51.299Z,995.2
2017-07-18T20:43:52.697Z,995.2
2017-07-18T20:44:54.185Z,995.2
2017-07-18T20:45:55.590Z,995.3
2017-07-18T20:46:56.990Z,995.3
2017-07-18T20:47:58.506Z,995.3
2017-07-18T20:48:59.913Z,995.3
2017-07-18T20:50:01.317Z,995.3
2017-07-18T20:51:02.844Z,995.4
2017-07-18T20:52:04.247Z,995.4
2017-07-18T20:53:05.652Z,995.4
2017-07-18T20:54:07.166Z,995.4
2017-07-18T20:55:08.565Z,995.5
2017-07-18T20:56:09.977Z,995.6
2017-07-18T20:57:11.468Z,995.6
2017-07-18T20:58:12.876Z,995.6
2017-07-18T20:59:14.274Z,995.7
2017-07-18T21:00:15.808Z,995.7
2017-07-18T21:01:22.164Z,995.6
2017-07-18T21:02:23.585Z,995.6
2017-07-18T21:03:24.996Z,995.7
2017-07-18T21:04:26.476Z,995.7
2017-07-18T21:05:27.892Z,995.8
2017-07-18T21:06:29.292Z,995.8
2017-07-18T21:07:30.850Z,995.9
2017-07-18T21:08:32.254Z,995.9
2017-07-18T21:09:33.655Z,995.9
2017-07-18T21:10:35.127Z,995.9
2017-07-18T21:11:36.723Z,996.0
2017-07-18T21:12:38.994Z,996.0
2017-07-18T21:13:40.394Z,996.1
2017-07-18T21:14:41.914Z,996.0
2017-07-18T21:15:43.327Z,996.0
2017-07-18T21:16:44.810Z,996.1
2017-07-18T21:17:46.227Z,996.0
2017-07-18T21:18:47.859Z,996.1
2017-07-18T21:19:49.278Z,996.2
2017-07-18T21:20:50.739Z,996.2
2017-07-18T21:21:52.145Z,996.3
2017-07-18T21:22:53.619Z,996.3
2017-07-18T21:23:55.021Z,996.3
2017-07-18T21:24:56.442Z,996.4
2017-07-18T21:25:57.939Z,996.5
2017-07-18T21:26:59.350Z,996.5
2017-07-18T21:28:00.755Z,996.6
2017-07-18T21:29:02.281Z,996.6
2017-07-18T21:30:03.679Z,996.7
2017-07-18T21:31:05.078Z,996.7
2017-07-18T21:32:06.600Z,996.8
2017-07-18T21:33:08.007Z,996.8
2017-07-18T21:34:09.410Z,996.8
2017-07-18T21:35:10.904Z,996.9
2017-07-18T21:36:12.307Z,996.9